Time;durP1;ratioP1;P1;durP2;ratioP2;P2;SDS_P1;SDS_P2;PMS_P1;PMS_P2;Temp;Humidity;BMP_temperature;BMP_pressure;BME280_temperature;BME280_humidity;BME280_pressure;Samples;Min_cycle;Max_cycle;Signal;HPM_P1;HPM_P2
2021/06/22 00:00:10;;;;;;;7.45;2.63;;;22.30;99.90;;;;;;5094484;28;20203;-71
2021/06/22 00:02:37;;;;;;;1.85;1.58;;;22.20;99.90;;;;;;5112870;28;20159;-71
2021/06/22 00:05:05;;;;;;;1.38;1.27;;;22.30;99.90;;;;;;5112844;28;20187;-71
2021/06/22 00:07:31;;;;;;;2.30;1.52;;;22.30;99.90;;;;;;5112738;28;20254;-71
2021/06/22 00:09:56;;;;;;;7.18;1.77;;;22.20;99.90;;;;;;5094318;28;20554;-71
2021/06/22 00:12:22;;;;;;;1.55;1.45;;;22.20;99.90;;;;;;5112883;28;20195;-71
2021/06/22 00:14:48;;;;;;;3.85;3.00;;;22.20;99.90;;;;;;5112797;28;20211;-71
2021/06/22 00:17:14;;;;;;;4.70;2.00;;;22.10;99.90;;;;;;5112652;28;20155;-71
2021/06/22 00:19:40;;;;;;;2.88;2.40;;;22.10;99.90;;;;;;5112744;28;20183;-71
2021/06/22 00:22:06;;;;;;;3.85;1.65;;;22.10;99.90;;;;;;5094430;28;20187;-71
2021/06/22 00:24:32;;;;;;;8.32;2.65;;;22.10;99.90;;;;;;5112561;28;20178;-71
2021/06/22 00:26:58;;;;;;;6.50;1.20;;;22.20;99.90;;;;;;5094334;28;20628;-71
2021/06/22 00:29:24;;;;;;;3.42;1.65;;;22.20;99.90;;;;;;5112430;28;20191;-71
2021/06/22 00:31:51;;;;;;;15.35;2.22;;;22.10;99.90;;;;;;5112476;28;20202;-71
2021/06/22 00:34:17;;;;;;;0.80;0.63;;;22.10;99.90;;;;;;5112420;28;20189;-71
2021/06/22 00:36:43;;;;;;;3.55;1.63;;;22.00;99.90;;;;;;5112272;28;20159;-71
2021/06/22 00:39:09;;;;;;;2.28;1.98;;;22.00;99.90;;;;;;5093992;28;20198;-71
2021/06/22 00:41:36;;;;;;;7.57;2.72;;;22.00;99.90;;;;;;5112289;28;20164;-71
2021/06/22 00:44:10;;;;;;;2.17;1.40;;;21.90;99.90;;;;;;5093856;28;20219;-71
2021/06/22 00:46:37;;;;;;;9.38;2.22;;;21.90;99.90;;;;;;5112163;28;20193;-71
2021/06/22 00:49:05;;;;;;;1.75;1.65;;;21.90;99.90;;;;;;5093968;28;20559;-71
2021/06/22 00:51:31;;;;;;;0.85;0.85;;;21.80;99.90;;;;;;5093901;28;20226;-71
2021/06/22 00:53:58;;;;;;;3.38;2.08;;;21.70;99.90;;;;;;5103948;28;20206;-71
2021/06/22 00:56:24;;;;;;;2.53;2.42;;;21.90;99.90;;;;;;5073561;28;20203;-71
2021/06/22 00:58:53;;;;;;;1.60;1.50;;;21.80;99.90;;;;;;5089820;28;20210;-71
2021/06/22 01:01:19;;;;;;;4.32;2.47;;;21.60;99.90;;;;;;5088882;28;20549;-70
2021/06/22 01:03:45;;;;;;;4.38;2.20;;;21.60;99.90;;;;;;5091516;28;20224;-71
2021/06/22 01:06:11;;;;;;;3.78;2.35;;;21.50;99.90;;;;;;5091522;28;20522;-70
2021/06/22 01:08:38;;;;;;;2.25;2.15;;;21.60;99.90;;;;;;5092550;28;20208;-71
2021/06/22 01:11:04;;;;;;;2.42;2.00;;;21.60;99.90;;;;;;5091273;28;20164;-71
2021/06/22 01:13:30;;;;;;;2.50;1.77;;;21.50;99.90;;;;;;5091384;28;20159;-71
2021/06/22 01:15:56;;;;;;;3.10;2.85;;;21.30;99.90;;;;;;5091450;28;20152;-72
2021/06/22 01:18:21;;;;;;;1.27;1.13;;;21.30;99.90;;;;;;5073202;28;20196;-71
2021/06/22 01:20:47;;;;;;;2.53;1.75;;;21.40;99.90;;;;;;5091188;28;20159;-71
2021/06/22 01:23:13;;;;;;;1.60;1.50;;;21.40;99.90;;;;;;5091186;28;20184;-71
2021/06/22 01:25:39;;;;;;;1.08;1.08;;;21.20;99.90;;;;;;5091158;28;20223;-71
2021/06/22 01:28:06;;;;;;;4.07;2.15;;;21.10;99.90;;;;;;5091006;28;20273;-71
2021/06/22 01:30:33;;;;;;;3.22;1.65;;;21.10;99.90;;;;;;5072947;28;20603;-71
2021/06/22 01:33:00;;;;;;;2.88;2.00;;;21.00;99.90;;;;;;5072901;28;20196;-71
2021/06/22 01:35:28;;;;;;;1.73;1.50;;;21.00;99.90;;;;;;5072984;28;20172;-71
2021/06/22 01:38:06;;;;;;;1.63;1.52;;;21.00;99.90;;;;;;5090795;28;20214;-71
2021/06/22 01:40:42;;;;;;;2.72;1.63;;;21.00;99.90;;;;;;5090888;28;20152;-71
2021/06/22 01:43:08;;;;;;;2.83;1.35;;;20.90;99.90;;;;;;5090694;28;20211;-71
2021/06/22 01:45:35;;;;;;;1.38;1.27;;;20.80;99.90;;;;;;5090665;28;20227;-71
2021/06/22 01:48:00;;;;;;;7.28;2.88;;;20.90;99.90;;;;;;5072695;28;20199;-71
2021/06/22 01:50:26;;;;;;;2.08;1.85;;;20.90;99.90;;;;;;5090124;28;20516;-71
2021/06/22 01:52:52;;;;;;;7.22;1.58;;;20.80;99.90;;;;;;5077291;28;20274;-71
2021/06/22 01:58:06;;;;;;;4.00;1.85;;;20.80;99.90;;;;;;5090391;28;20264;-71
2021/06/22 02:00:32;;;;;;;2.42;1.98;;;20.70;99.90;;;;;;5090531;28;20163;-71
2021/06/22 02:02:58;;;;;;;1.55;1.45;;;20.60;99.90;;;;;;5072435;28;20187;-70
2021/06/22 02:05:24;;;;;;;1.85;1.45;;;20.60;99.90;;;;;;5090289;28;20190;-71
2021/06/22 02:07:50;;;;;;;2.15;1.77;;;20.50;99.90;;;;;;5090156;28;20228;-71
2021/06/22 02:10:16;;;;;;;1.48;0.45;;;20.50;99.90;;;;;;5072228;28;20175;-71
2021/06/22 02:12:41;;;;;;;4.20;1.00;;;20.40;99.90;;;;;;5072137;28;20223;-71
2021/06/22 02:15:09;;;;;;;4.50;2.28;;;20.40;99.90;;;;;;5090144;28;20160;-71
2021/06/22 02:17:36;;;;;;;2.65;2.17;;;20.40;99.90;;;;;;5090137;28;20555;-71
2021/06/22 02:20:07;;;;;;;3.65;1.40;;;20.40;99.90;;;;;;5090036;28;20602;-71
2021/06/22 02:22:35;;;;;;;8.80;2.15;;;20.40;99.90;;;;;;5090163;28;20184;-70
2021/06/22 02:25:02;;;;;;;0.40;0.40;;;20.30;99.90;;;;;;5089969;28;20171;-70
2021/06/22 02:27:31;;;;;;;8.07;1.90;;;20.20;99.90;;;;;;5089712;28;20239;-70
2021/06/22 02:29:58;;;;;;;2.53;2.33;;;20.20;99.90;;;;;;5072058;28;20172;-71
2021/06/22 02:32:25;;;;;;;3.45;1.88;;;20.10;99.90;;;;;;5089756;28;20192;-70
2021/06/22 02:34:52;;;;;;;2.00;1.85;;;20.10;99.90;;;;;;5089620;28;20164;-71
2021/06/22 02:37:18;;;;;;;1.40;1.33;;;20.00;99.90;;;;;;5089640;28;20168;-71
2021/06/22 02:39:45;;;;;;;4.22;2.25;;;20.00;99.90;;;;;;5089705;28;20176;-71
2021/06/22 02:42:11;;;;;;;4.05;1.08;;;20.00;99.90;;;;;;5089472;28;20194;-71
2021/06/22 02:44:37;;;;;;;4.90;1.85;;;20.10;99.90;;;;;;5089486;28;20220;-71
2021/06/22 02:47:04;;;;;;;6.38;1.38;;;20.20;99.90;;;;;;5071521;28;20191;-71
2021/06/22 02:49:30;;;;;;;6.20;3.35;;;20.20;99.90;;;;;;5089428;28;20188;-71
2021/06/22 02:51:58;;;;;;;4.90;2.70;;;20.20;99.90;;;;;;5089307;28;20192;-71
2021/06/22 02:54:25;;;;;;;4.75;1.90;;;20.10;99.90;;;;;;5089375;28;20160;-71
2021/06/22 02:56:51;;;;;;;1.98;1.88;;;20.00;99.90;;;;;;5089100;28;20156;-71
2021/06/22 02:59:18;;;;;;;1.23;1.13;;;20.00;99.90;;;;;;5089404;28;20239;-71
2021/06/22 03:01:44;;;;;;;2.00;1.80;;;20.00;99.90;;;;;;5070474;28;20196;-71
2021/06/22 03:04:09;;;;;;;4.88;3.53;;;20.10;99.90;;;;;;5071130;28;20172;-71
2021/06/22 03:06:36;;;;;;;6.70;1.80;;;20.20;99.90;;;;;;5088912;28;20222;-71
2021/06/22 03:09:03;;;;;;;2.08;1.92;;;20.30;99.90;;;;;;5069672;28;20203;-71
2021/06/22 03:11:29;;;;;;;6.15;2.70;;;20.40;99.90;;;;;;5070955;28;20203;-71
2021/06/22 03:13:55;;;;;;;1.40;1.30;;;20.50;99.90;;;;;;5089275;28;20167;-71
2021/06/22 03:16:21;;;;;;;4.63;2.72;;;20.60;99.90;;;;;;5088919;28;20156;-72
2021/06/22 03:18:47;;;;;;;2.40;2.25;;;20.60;99.90;;;;;;5089145;28;20225;-71
2021/06/22 03:21:14;;;;;;;1.70;1.60;;;20.50;99.90;;;;;;5070822;28;20202;-70
2021/06/22 03:23:40;;;;;;;3.00;2.70;;;20.60;99.90;;;;;;5070940;28;20167;-72
2021/06/22 03:26:05;;;;;;;2.00;1.85;;;20.60;99.90;;;;;;5089237;28;20182;-71
2021/06/22 03:28:31;;;;;;;1.42;0.93;;;20.60;99.90;;;;;;5071088;28;20200;-70
2021/06/22 03:30:57;;;;;;;2.55;2.33;;;20.60;99.90;;;;;;5088989;28;20161;-71
2021/06/22 03:33:23;;;;;;;1.95;1.85;;;20.70;99.90;;;;;;5071043;28;20239;-72
2021/06/22 03:35:49;;;;;;;2.58;2.38;;;20.80;99.90;;;;;;5088926;28;20163;-71
2021/06/22 03:38:15;;;;;;;3.53;2.63;;;20.80;99.90;;;;;;5088958;28;20247;-71
2021/06/22 03:40:41;;;;;;;10.82;2.13;;;20.80;99.90;;;;;;5089069;28;20167;-71
2021/06/22 03:43:07;;;;;;;1.08;1.08;;;20.90;99.90;;;;;;5088492;28;20275;-71
2021/06/22 03:45:33;;;;;;;6.43;2.53;;;20.90;99.90;;;;;;5088898;28;20182;-70
2021/06/22 03:47:59;;;;;;;1.60;1.50;;;21.00;99.90;;;;;;5088481;28;20195;-72
2021/06/22 03:50:25;;;;;;;5.55;2.33;;;21.20;99.90;;;;;;5088615;28;20164;-72
2021/06/22 03:52:51;;;;;;;3.00;2.42;;;21.30;99.90;;;;;;5088730;28;20226;-73
2021/06/22 03:55:26;;;;;;;1.27;1.17;;;21.60;99.90;;;;;;5088729;28;20167;-71
2021/06/22 03:57:54;;;;;;;0.93;0.93;;;22.00;99.90;;;;;;5088545;28;20327;-72
2021/06/22 04:00:21;;;;;;;1.83;1.67;;;22.50;99.90;;;;;;5088785;28;20555;-72
2021/06/22 04:02:49;;;;;;;14.57;2.80;;;22.80;99.90;;;;;;5088638;28;20160;-71
2021/06/22 04:05:15;;;;;;;7.10;2.67;;;23.30;99.90;;;;;;5088622;28;20183;-71
2021/06/22 04:07:42;;;;;;;11.98;1.65;;;23.60;99.90;;;;;;5088644;28;20192;-70
2021/06/22 04:10:09;;;;;;;2.05;1.85;;;23.90;99.90;;;;;;5088620;28;20219;-72
2021/06/22 04:12:35;;;;;;;0.88;0.88;;;24.00;99.90;;;;;;5090053;28;20191;-72
2021/06/22 04:15:01;;;;;;;4.88;3.33;;;24.10;99.90;;;;;;5092208;28;20152;-72
2021/06/22 04:17:27;;;;;;;3.65;1.70;;;24.00;99.90;;;;;;5074241;28;20164;-72
2021/06/22 04:19:53;;;;;;;2.90;1.67;;;23.90;99.90;;;;;;5092054;28;20234;-72
2021/06/22 04:22:19;;;;;;;2.35;2.15;;;23.90;99.90;;;;;;5074259;28;20199;-72
2021/06/22 04:24:45;;;;;;;16.08;1.55;;;24.10;99.90;;;;;;5092192;28;20159;-71
2021/06/22 04:27:11;;;;;;;10.25;2.28;;;24.30;99.90;;;;;;5092101;28;20147;-72
2021/06/22 04:29:37;;;;;;;1.48;1.02;;;24.70;99.90;;;;;;5091718;28;20203;-72
2021/06/22 04:32:03;;;;;;;2.40;0.98;;;24.80;99.90;;;;;;5091606;28;20268;-72
2021/06/22 04:34:29;;;;;;;3.22;1.98;;;25.20;99.90;;;;;;5092040;28;20163;-72
2021/06/22 04:36:55;;;;;;;4.40;2.78;;;25.30;99.90;;;;;;5092051;28;20156;-72
2021/06/22 04:39:21;;;;;;;3.38;1.50;;;25.30;99.90;;;;;;5091813;28;20221;-72
2021/06/22 04:41:47;;;;;;;1.13;0.98;;;25.90;99.90;;;;;;5091741;28;20187;-72
2021/06/22 04:44:13;;;;;;;10.48;3.53;;;26.10;99.90;;;;;;5091349;28;20222;-72
2021/06/22 04:46:39;;;;;;;24.70;3.85;;;26.20;99.90;;;;;;5091435;28;20616;-72
2021/06/22 04:49:05;;;;;;;1.65;1.55;;;26.40;99.90;;;;;;5091537;28;20202;-72
2021/06/22 04:51:31;;;;;;;7.72;2.30;;;26.60;99.90;;;;;;5073406;28;20207;-72
2021/06/22 04:53:57;;;;;;;5.03;2.50;;;27.30;99.90;;;;;;5073421;28;20198;-72
2021/06/22 04:56:25;;;;;;;3.33;2.38;;;27.10;99.90;;;;;;5090649;28;20189;-72
2021/06/22 04:58:53;;;;;;;1.02;0.93;;;26.80;99.90;;;;;;5091310;28;20191;-72
2021/06/22 05:01:19;;;;;;;8.25;2.00;;;26.50;99.90;;;;;;5091296;28;20160;-72
2021/06/22 05:03:46;;;;;;;3.10;1.75;;;26.30;99.90;;;;;;5073240;28;20233;-72
2021/06/22 05:06:12;;;;;;;1.73;1.63;;;26.30;99.90;;;;;;5091364;28;20163;-72
2021/06/22 05:08:39;;;;;;;1.40;1.35;;;26.60;99.90;;;;;;5091127;28;20223;-72
2021/06/22 05:11:05;;;;;;;1.33;0.80;;;27.10;99.90;;;;;;5090732;28;20180;-71
2021/06/22 05:13:32;;;;;;;6.85;1.35;;;27.70;99.90;;;;;;5090960;28;20160;-72
2021/06/22 05:15:58;;;;;;;2.00;1.45;;;28.20;99.90;;;;;;5072457;28;20167;-72
2021/06/22 05:18:24;;;;;;;4.45;2.63;;;28.50;99.90;;;;;;5090901;28;20194;-72
2021/06/22 05:20:50;;;;;;;1.95;1.10;;;28.40;99.90;;;;;;5091003;28;20163;-71
2021/06/22 05:23:17;;;;;;;5.25;2.13;;;28.50;99.90;;;;;;5090274;28;20191;-72
2021/06/22 05:25:44;;;;;;;1.42;0.98;;;28.50;99.90;;;;;;5089844;28;20159;-71
2021/06/22 05:28:10;;;;;;;10.55;1.45;;;28.70;99.90;;;;;;5072828;28;20199;-71
2021/06/22 05:30:37;;;;;;;6.68;2.35;;;29.10;99.90;;;;;;5072946;28;20172;-71
2021/06/22 05:33:03;;;;;;;2.92;1.45;;;29.30;99.90;;;;;;5090591;28;20193;-71
2021/06/22 05:35:29;;;;;;;2.13;1.60;;;29.30;99.90;;;;;;5090667;28;20246;-71
2021/06/22 05:37:56;;;;;;;3.40;1.85;;;29.50;99.90;;;;;;5090379;28;20180;-72
2021/06/22 05:40:22;;;;;;;1.60;1.17;;;29.40;99.90;;;;;;5090633;28;20152;-71
2021/06/22 05:42:48;;;;;;;0.98;0.98;;;29.80;99.90;;;;;;5089961;28;20236;-70
2021/06/22 05:45:14;;;;;;;1.00;0.88;;;30.70;99.90;;;;;;5090206;28;20183;-71
2021/06/22 05:47:41;;;;;;;11.82;1.95;;;31.30;99.90;;;;;;5072522;28;20199;-71
2021/06/22 05:50:08;;;;;;;9.80;2.15;;;31.20;99.90;;;;;;5090261;28;20156;-71
2021/06/22 05:52:35;;;;;;;4.10;1.60;;;31.50;99.90;;;;;;5083638;28;20200;-70
2021/06/22 05:55:01;;;;;;;4.88;2.08;;;31.80;99.90;;;;;;5076810;28;20172;-70
2021/06/22 05:57:26;;;;;;;1.83;1.48;;;31.60;99.90;;;;;;5085665;28;20218;-70
2021/06/22 05:59:52;;;;;;;2.08;1.42;;;32.00;99.90;;;;;;5089565;28;20173;-70
2021/06/22 06:02:18;;;;;;;2.70;1.95;;;32.90;99.90;;;;;;5070062;28;20215;-71
2021/06/22 06:04:44;;;;;;;11.45;3.58;;;32.40;99.90;;;;;;5070068;28;20167;-72
2021/06/22 06:07:10;;;;;;;4.78;0.98;;;32.30;99.90;;;;;;5070008;28;20195;-72
2021/06/22 06:09:37;;;;;;;2.25;1.20;;;33.10;99.90;;;;;;5079844;28;20163;-72
2021/06/22 06:12:03;;;;;;;15.48;2.55;;;33.70;99.90;;;;;;5089732;28;20194;-72
2021/06/22 06:14:29;;;;;;;2.15;1.95;;;33.80;99.90;;;;;;5089830;28;20177;-71
2021/06/22 06:16:55;;;;;;;2.67;1.73;;;34.20;99.90;;;;;;5071336;28;20286;-71
2021/06/22 06:19:21;;;;;;;6.05;1.77;;;33.60;99.90;;;;;;5071779;28;20163;-72
2021/06/22 06:21:48;;;;;;;4.13;1.95;;;33.20;99.90;;;;;;5089690;28;20160;-71
2021/06/22 06:24:14;;;;;;;5.38;1.75;;;33.60;99.90;;;;;;5089721;28;20163;-71
2021/06/22 06:26:51;;;;;;;5.13;1.42;;;34.00;99.90;;;;;;5079307;28;20196;-72
2021/06/22 06:32:02;;;;;;;1.63;0.88;;;34.80;99.90;;;;;;5069102;28;20187;-70
2021/06/22 06:34:28;;;;;;;6.85;3.03;;;35.10;99.90;;;;;;5051606;28;20203;-71
2021/06/22 06:36:54;;;;;;;8.88;1.38;;;35.00;99.90;;;;;;5051493;28;20203;-71
2021/06/22 06:39:19;;;;;;;2.50;2.03;;;34.60;99.90;;;;;;5051662;28;20182;-72
2021/06/22 06:41:45;;;;;;;2.25;1.77;;;34.00;99.90;;;;;;5068983;28;20160;-71
2021/06/22 06:44:11;;;;;;;1.75;1.65;;;34.90;99.90;;;;;;5051115;28;20232;-71
2021/06/22 06:46:37;;;;;;;1.52;1.42;;;36.30;99.90;;;;;;5069361;28;20251;-72
2021/06/22 06:49:04;;;;;;;1.38;1.08;;;36.60;99.90;;;;;;5069357;28;20164;-72
2021/06/22 06:51:30;;;;;;;1.70;0.80;;;36.20;99.90;;;;;;5069141;28;20180;-72
2021/06/22 06:53:57;;;;;;;2.13;1.02;;;37.20;99.90;;;;;;5083773;28;20182;-72
2021/06/22 06:56:23;;;;;;;12.88;2.05;;;38.10;99.90;;;;;;5089031;28;20225;-72
2021/06/22 06:58:49;;;;;;;1.02;0.75;;;37.90;99.90;;;;;;5089270;28;20561;-72
2021/06/22 07:01:15;;;;;;;1.77;1.63;;;36.60;99.90;;;;;;5088940;28;20174;-72
2021/06/22 07:03:45;;;;;;;1.20;1.05;;;37.30;99.90;;;;;;5089067;28;20561;-71
2021/06/22 07:06:14;;;;;;;2.50;1.23;;;37.30;99.90;;;;;;5071274;28;20245;-71
2021/06/22 07:08:41;;;;;;;7.80;1.20;;;37.70;99.60;;;;;;5088916;28;20160;-72
2021/06/22 07:11:08;;;;;;;1.05;1.05;;;37.20;99.90;;;;;;5071038;28;20164;-72
2021/06/22 07:13:33;;;;;;;1.77;1.20;;;38.10;99.20;;;;;;5089130;28;20160;-72
2021/06/22 07:16:00;;;;;;;1.83;1.10;;;37.80;97.20;;;;;;5087894;28;20206;-72
2021/06/22 07:18:29;;;;;;;6.20;1.77;;;37.20;98.50;;;;;;5089068;28;20241;-72
2021/06/22 07:20:56;;;;;;;16.55;2.22;;;36.80;99.10;;;;;;5088868;28;20177;-72
2021/06/22 07:23:23;;;;;;;1.83;1.70;;;36.30;99.80;;;;;;5088968;28;20167;-72
2021/06/22 07:25:49;;;;;;;1.48;1.23;;;36.30;99.10;;;;;;5088903;28;20160;-72
2021/06/22 07:28:15;;;;;;;7.50;1.52;;;36.60;98.60;;;;;;5088828;28;20269;-71
2021/06/22 07:30:41;;;;;;;1.40;1.10;;;36.80;98.90;;;;;;5088667;28;20167;-72
2021/06/22 07:33:07;;;;;;;4.30;2.47;;;38.50;97.30;;;;;;5088536;28;20183;-72
2021/06/22 07:35:33;;;;;;;1.45;1.30;;;38.80;97.20;;;;;;5088882;28;20156;-72
2021/06/22 07:38:02;;;;;;;3.47;0.75;;;38.80;96.60;;;;;;5088769;28;20195;-72
2021/06/22 07:40:29;;;;;;;5.88;2.58;;;38.70;96.50;;;;;;5070703;28;20165;-72
2021/06/22 07:42:56;;;;;;;2.92;1.40;;;38.60;98.10;;;;;;5088645;28;20211;-72
2021/06/22 07:45:22;;;;;;;14.15;1.23;;;37.70;97.30;;;;;;5088792;28;20168;-71
2021/06/22 07:47:48;;;;;;;4.93;0.93;;;37.40;95.90;;;;;;5090430;28;20202;-72
2021/06/22 07:50:14;;;;;;;12.85;1.25;;;38.20;96.40;;;;;;5092709;28;20161;-72
2021/06/22 07:52:42;;;;;;;34.17;2.95;;;38.90;94.90;;;;;;5092772;28;20186;-72
2021/06/22 07:55:14;;;;;;;1.20;1.00;;;38.00;96.50;;;;;;5092626;28;20227;-72
2021/06/22 07:57:46;;;;;;;25.92;2.22;;;38.80;95.00;;;;;;5092335;28;20291;-72
2021/06/22 08:02:58;;;;;;;3.15;1.45;;;40.70;93.40;;;;;;5092710;28;20196;-72
2021/06/22 08:05:24;;;;;;;5.15;0.52;;;41.40;92.00;;;;;;5092466;28;20630;-72
2021/06/22 08:07:50;;;;;;;2.80;1.27;;;41.70;91.90;;;;;;5074274;28;20187;-71
2021/06/22 08:10:16;;;;;;;1.45;1.30;;;41.10;90.50;;;;;;5092400;28;20167;-72
2021/06/22 08:12:43;;;;;;;1.45;1.15;;;40.80;90.20;;;;;;5074251;28;20206;-72
2021/06/22 08:15:09;;;;;;;0.93;0.73;;;38.50;91.40;;;;;;5092294;28;20159;-71
2021/06/22 08:17:36;;;;;;;1.25;1.08;;;39.00;91.80;;;;;;5091798;28;20187;-71
2021/06/22 08:20:04;;;;;;;4.75;1.50;;;39.20;92.10;;;;;;5073432;28;20167;-70
2021/06/22 08:22:30;;;;;;;2.40;1.17;;;38.80;92.20;;;;;;5091070;28;20194;-70
2021/06/22 08:24:58;;;;;;;1.58;1.27;;;37.90;92.80;;;;;;5091317;28;20164;-71
2021/06/22 08:27:23;;;;;;;3.88;1.90;;;38.50;92.20;;;;;;5091126;28;20160;-71
2021/06/22 08:29:49;;;;;;;6.05;2.17;;;39.40;92.00;;;;;;5090802;28;20170;-71
2021/06/22 08:32:15;;;;;;;4.50;1.48;;;40.30;90.10;;;;;;5091001;28;20238;-71
2021/06/22 08:34:41;;;;;;;5.47;2.08;;;39.60;90.40;;;;;;5091776;28;20166;-71
2021/06/22 08:37:07;;;;;;;15.30;1.65;;;39.50;91.10;;;;;;5073854;28;20174;-71
2021/06/22 08:39:36;;;;;;;1.35;0.55;;;40.50;91.60;;;;;;5091328;28;20182;-71
2021/06/22 08:42:02;;;;;;;0.52;0.52;;;41.10;91.00;;;;;;5073687;28;20172;-71
2021/06/22 08:44:30;;;;;;;8.43;1.42;;;40.80;90.30;;;;;;5091439;28;20226;-71
2021/06/22 08:46:59;;;;;;;9.13;1.60;;;40.60;90.90;;;;;;5091701;28;20168;-71
2021/06/22 08:49:26;;;;;;;1.08;0.95;;;40.30;91.80;;;;;;5091694;28;20159;-71
2021/06/22 08:51:53;;;;;;;3.20;2.22;;;39.10;91.30;;;;;;5091536;28;20182;-71
2021/06/22 08:54:18;;;;;;;1.02;0.90;;;39.00;91.90;;;;;;5091443;28;20152;-71
2021/06/22 08:56:44;;;;;;;5.22;2.03;;;38.60;91.40;;;;;;5091267;28;20525;-71
2021/06/22 08:59:10;;;;;;;4.63;1.50;;;38.90;91.20;;;;;;5089871;28;20179;-71
2021/06/22 09:01:36;;;;;;;1.00;1.00;;;38.50;92.20;;;;;;5091215;28;20194;-71
2021/06/22 09:04:02;;;;;;;1.50;1.40;;;37.90;91.50;;;;;;5091212;28;20191;-72
2021/06/22 09:06:42;;;;;;;2.65;1.85;;;37.90;92.60;;;;;;5091044;28;20164;-71
2021/06/22 09:09:10;;;;;;;0.45;0.45;;;38.20;93.70;;;;;;5091380;28;20167;-71
2021/06/22 09:11:38;;;;;;;3.63;1.25;;;39.10;91.80;;;;;;5091170;28;20272;-72
2021/06/22 09:14:06;;;;;;;1.30;1.13;;;39.20;92.00;;;;;;5056647;28;20191;-72
2021/06/22 09:16:33;;;;;;;2.05;1.60;;;37.70;92.60;;;;;;5091258;28;20194;-72
2021/06/22 09:19:08;;;;;;;3.35;1.67;;;36.40;93.60;;;;;;5090906;28;20152;-71
2021/06/22 09:21:45;;;;;;;0.80;0.80;;;35.90;95.70;;;;;;5072849;28;20194;-71
2021/06/22 09:24:24;;;;;;;0.80;0.80;;;35.90;94.20;;;;;;5072753;28;20191;-71
2021/06/22 09:26:51;;;;;;;1.38;1.27;;;36.30;93.80;;;;;;5091036;28;20176;-72
2021/06/22 09:29:21;;;;;;;3.17;1.67;;;36.20;93.20;;;;;;5072942;28;20205;-71
2021/06/22 09:32:00;;;;;;;4.85;1.98;;;37.10;93.70;;;;;;5090859;28;20187;-72
2021/06/22 09:34:28;;;;;;;1.17;1.08;;;36.70;93.30;;;;;;5090751;28;20156;-72
2021/06/22 09:36:59;;;;;;;2.30;1.58;;;36.60;94.10;;;;;;5072757;28;20171;-72
2021/06/22 09:39:27;;;;;;;5.93;1.30;;;36.70;93.60;;;;;;5072820;28;20167;-72
2021/06/22 09:41:55;;;;;;;9.55;1.45;;;37.50;93.80;;;;;;5090540;28;20164;-71
2021/06/22 09:44:24;;;;;;;0.50;0.50;;;38.30;91.80;;;;;;5072587;28;20223;-69
2021/06/22 09:47:01;;;;;;;11.18;1.27;;;37.50;91.40;;;;;;5090842;28;20247;-71
2021/06/22 09:49:30;;;;;;;5.75;1.20;;;36.80;92.50;;;;;;5090149;28;20189;-71
2021/06/22 09:54:45;;;;;;;5.07;1.95;;;35.40;94.20;;;;;;5089769;28;20155;-71
2021/06/22 09:57:11;;;;;;;1.30;0.73;;;35.70;93.20;;;;;;5090292;28;20205;-71
2021/06/22 10:00:05;;;;;;;1.05;0.93;;;35.20;94.70;;;;;;5089901;28;20268;-70
2021/06/22 10:02:49;;;;;;;5.05;1.08;;;35.90;95.40;;;;;;5090090;28;20171;-71
2021/06/22 10:05:16;;;;;;;6.93;1.73;;;37.20;94.90;;;;;;5072084;28;20186;-71
2021/06/22 10:07:42;;;;;;;12.70;1.83;;;36.80;93.10;;;;;;5089957;28;20241;-71
2021/06/22 10:10:10;;;;;;;2.25;1.70;;;36.50;93.50;;;;;;5089516;28;20191;-68
2021/06/22 10:12:41;;;;;;;1.65;1.20;;;36.80;95.10;;;;;;5089742;28;20187;-70
2021/06/22 10:15:08;;;;;;;1.02;1.02;;;36.50;94.40;;;;;;5071737;28;20172;-69
2021/06/22 10:17:35;;;;;;;1.10;1.00;;;36.20;93.70;;;;;;5071609;28;20171;-71
2021/06/22 10:20:04;;;;;;;0.65;0.60;;;36.40;94.00;;;;;;5089668;28;20213;-70
2021/06/22 10:22:32;;;;;;;2.28;1.98;;;35.90;93.10;;;;;;5071807;28;20171;-70
2021/06/22 10:25:00;;;;;;;0.85;0.85;;;35.80;93.90;;;;;;5071725;28;20175;-70
2021/06/22 10:27:28;;;;;;;1.38;1.17;;;35.20;94.70;;;;;;5089363;28;20207;-69
2021/06/22 10:29:59;;;;;;;0.93;0.93;;;35.30;93.40;;;;;;5089537;28;20183;-70
2021/06/22 10:32:27;;;;;;;5.13;1.65;;;35.50;94.80;;;;;;5071784;28;20206;-70
2021/06/22 10:34:59;;;;;;;4.00;1.48;;;35.50;94.40;;;;;;5089827;28;20215;-70
2021/06/22 10:37:31;;;;;;;4.88;2.10;;;36.10;94.30;;;;;;5089641;28;20497;-70
2021/06/22 10:40:12;;;;;;;0.90;0.70;;;35.70;94.60;;;;;;5071670;28;20210;-70
2021/06/22 10:42:50;;;;;;;11.02;1.63;;;35.00;95.40;;;;;;5089418;28;20182;-70
2021/06/22 10:45:16;;;;;;;1.33;1.23;;;36.00;95.50;;;;;;5089562;28;20159;-71
2021/06/22 10:47:44;;;;;;;10.65;2.38;;;36.20;94.70;;;;;;5071528;28;20236;-71
2021/06/22 10:50:22;;;;;;;1.38;0.82;;;36.70;94.00;;;;;;5089433;28;20206;-71
2021/06/22 10:52:49;;;;;;;0.85;0.68;;;36.90;94.60;;;;;;5071413;28;20199;-70
2021/06/22 10:56:01;;;;;;;1.67;1.27;;;37.60;94.50;;;;;;5089196;28;20151;-71
2021/06/22 10:58:28;;;;;;;8.35;1.45;;;38.10;92.90;;;;;;5052041;28;20186;-71
2021/06/22 11:00:54;;;;;;;4.38;2.03;;;36.70;93.60;;;;;;5089096;28;20278;-71
2021/06/22 11:03:34;;;;;;;1.45;1.35;;;35.40;94.70;;;;;;5071066;28;20175;-71
2021/06/22 11:06:13;;;;;;;12.52;1.00;;;34.70;95.60;;;;;;5071196;28;20250;-71
2021/06/22 11:08:41;;;;;;;2.92;1.23;;;35.00;95.30;;;;;;5089002;28;20166;-71
2021/06/22 11:11:08;;;;;;;4.18;2.55;;;36.10;94.50;;;;;;5089172;28;20289;-71
2021/06/22 11:13:40;;;;;;;1.02;0.95;;;35.80;94.40;;;;;;5089001;28;20198;-72
2021/06/22 11:16:25;;;;;;;1.20;1.08;;;35.30;94.00;;;;;;5070921;28;20168;-71
2021/06/22 11:18:52;;;;;;;3.65;1.88;;;35.50;95.50;;;;;;5071089;28;20601;-71
2021/06/22 11:21:23;;;;;;;0.88;0.82;;;36.30;93.90;;;;;;5070483;28;20168;-71
2021/06/22 11:24:00;;;;;;;5.72;2.45;;;35.40;94.30;;;;;;5070887;28;20546;-71
2021/06/22 11:26:26;;;;;;;1.15;1.08;;;36.10;94.60;;;;;;5089004;28;20152;-71
2021/06/22 11:28:56;;;;;;;1.38;1.27;;;35.40;94.70;;;;;;5070811;28;20164;-71
2021/06/22 11:31:31;;;;;;;8.25;2.38;;;35.30;94.20;;;;;;5088835;28;20159;-71
2021/06/22 11:34:11;;;;;;;7.03;2.17;;;35.40;94.40;;;;;;5088945;28;20164;-71
2021/06/22 11:36:48;;;;;;;1.17;1.08;;;36.30;94.10;;;;;;5088899;28;20159;-71
2021/06/22 11:39:19;;;;;;;4.50;1.92;;;35.90;94.20;;;;;;5070809;28;20191;-71
2021/06/22 11:42:11;;;;;;;3.88;1.92;;;36.40;94.50;;;;;;5070902;28;20179;-71
2021/06/22 11:44:43;;;;;;;13.15;1.00;;;36.00;95.30;;;;;;5078053;28;20249;-71
2021/06/22 11:47:27;;;;;;;0.85;0.85;;;36.50;93.80;;;;;;5088848;28;20189;-71
2021/06/22 11:49:56;;;;;;;7.65;0.98;;;36.50;94.20;;;;;;5088872;28;20221;-72
2021/06/22 11:52:31;;;;;;;1.50;1.25;;;35.70;95.10;;;;;;5088579;28;20186;-71
2021/06/22 11:55:03;;;;;;;1.95;1.30;;;35.70;94.80;;;;;;5088618;28;20230;-71
2021/06/22 11:57:31;;;;;;;2.38;1.42;;;36.60;94.70;;;;;;5088415;28;20151;-72
2021/06/22 12:00:05;;;;;;;0.77;0.77;;;37.10;94.40;;;;;;5071540;28;20194;-72
2021/06/22 12:02:31;;;;;;;17.15;1.13;;;37.70;94.10;;;;;;5088658;28;20163;-73
2021/06/22 12:04:56;;;;;;;3.03;1.88;;;37.20;94.50;;;;;;5070337;28;20171;-73
2021/06/22 12:07:22;;;;;;;13.10;1.38;;;36.50;94.90;;;;;;5088310;28;20213;-72
2021/06/22 12:09:49;;;;;;;1.17;0.98;;;36.10;95.00;;;;;;5070397;28;20202;-72
2021/06/22 12:12:16;;;;;;;2.75;1.27;;;35.50;95.70;;;;;;5088396;28;20184;-72
2021/06/22 12:14:46;;;;;;;1.42;1.00;;;34.60;96.10;;;;;;5088628;28;20160;-72
2021/06/22 12:17:17;;;;;;;1.85;1.33;;;34.80;96.40;;;;;;5088594;28;20155;-72
2021/06/22 12:19:43;;;;;;;2.53;2.08;;;34.70;96.00;;;;;;5088135;28;20532;-72
2021/06/22 12:22:14;;;;;;;3.63;1.85;;;33.20;96.70;;;;;;5070506;28;20187;-71
2021/06/22 12:24:47;;;;;;;3.90;1.40;;;32.90;97.20;;;;;;5070425;28;20277;-71
2021/06/22 12:27:13;;;;;;;2.50;2.28;;;32.60;97.80;;;;;;5088491;28;20235;-72
2021/06/22 12:29:39;;;;;;;1.95;1.55;;;32.20;97.50;;;;;;5088442;28;20191;-71
2021/06/22 12:32:09;;;;;;;4.47;1.25;;;32.00;97.70;;;;;;5088073;28;20251;-71
2021/06/22 12:34:41;;;;;;;11.57;1.80;;;32.00;97.50;;;;;;5091381;28;20216;-72
2021/06/22 12:37:24;;;;;;;1.88;1.77;;;32.20;97.50;;;;;;5091727;28;20674;-72
2021/06/22 12:39:50;;;;;;;1.65;1.30;;;32.40;97.10;;;;;;5091895;28;20660;-72
2021/06/22 12:42:20;;;;;;;0.82;0.82;;;32.50;96.80;;;;;;5091785;28;20190;-71
2021/06/22 12:44:47;;;;;;;4.00;1.25;;;32.50;97.50;;;;;;5091518;28;20274;-71
2021/06/22 12:47:13;;;;;;;3.72;1.48;;;32.30;97.00;;;;;;5073580;28;20171;-72
2021/06/22 12:49:40;;;;;;;4.78;0.75;;;32.50;97.00;;;;;;5091661;28;20191;-72
2021/06/22 12:52:08;;;;;;;8.27;1.52;;;32.90;97.20;;;;;;5091451;28;20217;-72
2021/06/22 12:54:37;;;;;;;1.77;1.67;;;33.10;96.80;;;;;;5091501;28;20148;-72
2021/06/22 12:57:21;;;;;;;1.75;1.50;;;32.70;97.10;;;;;;5091111;28;20219;-72
2021/06/22 12:59:49;;;;;;;0.55;0.50;;;32.70;96.70;;;;;;5071815;28;20543;-72